sensor_id;sensor_type;location;lat;lon;timestamp;pressure;altitude;pressure_sealevel;temperature;humidity
12666;BME280;58531;59.050;17.416;2022-12-10T00:00:12;100335.06;;;-5.30;100.00
12666;BME280;58531;59.050;17.416;2022-12-10T00:02:39;100344.38;;;-5.29;100.00
12666;BME280;58531;59.050;17.416;2022-12-10T00:05:06;100341.44;;;-5.27;100.00
12666;BME280;58531;59.050;17.416;2022-12-10T00:07:33;100340.78;;;-5.24;100.00
12666;BME280;58531;59.050;17.416;2022-12-10T00:10:02;100340.78;;;-5.24;100.00
12666;BME280;58531;59.050;17.416;2022-12-10T00:12:29;100345.41;;;-5.18;100.00
12666;BME280;58531;59.050;17.416;2022-12-10T00:14:55;100347.25;;;-5.18;100.00
12666;BME280;58531;59.050;17.416;2022-12-10T00:17:22;100355.88;;;-5.14;100.00
12666;BME280;58531;59.050;17.416;2022-12-10T00:19:49;100351.78;;;-5.15;100.00
12666;BME280;58531;59.050;17.416;2022-12-10T00:22:16;100348.75;;;-5.17;100.00
12666;BME280;58531;59.050;17.416;2022-12-10T00:24:42;100354.91;;;-5.10;100.00
12666;BME280;58531;59.050;17.416;2022-12-10T00:27:11;100360.84;;;-5.09;100.00
12666;BME280;58531;59.050;17.416;2022-12-10T00:29:37;100354.97;;;-5.06;100.00
12666;BME280;58531;59.050;17.416;2022-12-10T00:32:04;100361.00;;;-5.02;100.00
12666;BME280;58531;59.050;17.416;2022-12-10T00:34:31;100358.41;;;-5.02;100.00
12666;BME280;58531;59.050;17.416;2022-12-10T00:36:58;100349.94;;;-4.99;100.00
12666;BME280;58531;59.050;17.416;2022-12-10T00:39:26;100359.50;;;-5.03;100.00
12666;BME280;58531;59.050;17.416;2022-12-10T00:41:54;100364.78;;;-5.00;100.00
12666;BME280;58531;59.050;17.416;2022-12-10T00:44:22;100358.81;;;-5.00;100.00
12666;BME280;58531;59.050;17.416;2022-12-10T00:46:49;100366.03;;;-4.94;100.00
12666;BME280;58531;59.050;17.416;2022-12-10T00:49:16;100364.94;;;-4.93;100.00
12666;BME280;58531;59.050;17.416;2022-12-10T00:51:42;100361.41;;;-4.85;100.00
12666;BME280;58531;59.050;17.416;2022-12-10T00:54:09;100357.56;;;-4.91;100.00
12666;BME280;58531;59.050;17.416;2022-12-10T00:56:36;100353.84;;;-4.90;100.00
12666;BME280;58531;59.050;17.416;2022-12-10T00:59:03;100361.75;;;-4.86;100.00
12666;BME280;58531;59.050;17.416;2022-12-10T01:01:33;100353.94;;;-4.86;100.00
12666;BME280;58531;59.050;17.416;2022-12-10T01:04:05;100353.25;;;-4.83;100.00
12666;BME280;58531;59.050;17.416;2022-12-10T01:06:34;100360.06;;;-4.79;100.00
12666;BME280;58531;59.050;17.416;2022-12-10T01:09:03;100354.84;;;-4.79;100.00
12666;BME280;58531;59.050;17.416;2022-12-10T01:11:33;100351.22;;;-4.74;100.00
12666;BME280;58531;59.050;17.416;2022-12-10T01:14:00;100345.78;;;-4.85;100.00
12666;BME280;58531;59.050;17.416;2022-12-10T01:16:27;100353.25;;;-4.83;100.00
12666;BME280;58531;59.050;17.416;2022-12-10T01:18:57;100359.84;;;-4.89;100.00
12666;BME280;58531;59.050;17.416;2022-12-10T01:21:25;100363.94;;;-4.88;100.00
12666;BME280;58531;59.050;17.416;2022-12-10T01:23:53;100358.38;;;-4.87;100.00
12666;BME280;58531;59.050;17.416;2022-12-10T01:26:22;100366.13;;;-4.90;100.00
12666;BME280;58531;59.050;17.416;2022-12-10T01:28:50;100363.94;;;-4.88;100.00
12666;BME280;58531;59.050;17.416;2022-12-10T01:31:18;100359.16;;;-4.86;100.00
12666;BME280;58531;59.050;17.416;2022-12-10T01:33:46;100363.66;;;-4.83;100.00
12666;BME280;58531;59.050;17.416;2022-12-10T01:36:18;100364.38;;;-4.86;100.00
12666;BME280;58531;59.050;17.416;2022-12-10T01:38:45;100360.50;;;-4.92;100.00
12666;BME280;58531;59.050;17.416;2022-12-10T01:41:15;100363.19;;;-4.89;100.00
12666;BME280;58531;59.050;17.416;2022-12-10T01:43:54;100355.09;;;-4.84;100.00
12666;BME280;58531;59.050;17.416;2022-12-10T01:46:22;100367.72;;;-4.86;100.00
12666;BME280;58531;59.050;17.416;2022-12-10T01:48:49;100362.00;;;-4.91;100.00
12666;BME280;58531;59.050;17.416;2022-12-10T01:51:18;100367.97;;;-4.91;100.00
12666;BME280;58531;59.050;17.416;2022-12-10T01:53:46;100368.31;;;-4.92;100.00
12666;BME280;58531;59.050;17.416;2022-12-10T01:56:15;100367.22;;;-4.91;100.00
12666;BME280;58531;59.050;17.416;2022-12-10T01:58:43;100369.31;;;-4.97;100.00
12666;BME280;58531;59.050;17.416;2022-12-10T02:01:13;100363.78;;;-4.95;100.00
12666;BME280;58531;59.050;17.416;2022-12-10T02:03:51;100370.06;;;-4.96;100.00
12666;BME280;58531;59.050;17.416;2022-12-10T02:06:28;100379.16;;;-4.90;100.00
12666;BME280;58531;59.050;17.416;2022-12-10T02:09:07;100376.13;;;-4.92;100.00
12666;BME280;58531;59.050;17.416;2022-12-10T02:11:41;100373.94;;;-4.90;100.00
12666;BME280;58531;59.050;17.416;2022-12-10T02:14:14;100375.28;;;-4.96;100.00
12666;BME280;58531;59.050;17.416;2022-12-10T02:16:47;100365.53;;;-4.99;100.00
12666;BME280;58531;59.050;17.416;2022-12-10T02:19:21;100374.63;;;-4.93;100.00
12666;BME280;58531;59.050;17.416;2022-12-10T02:21:52;100377.22;;;-4.93;100.00
12666;BME280;58531;59.050;17.416;2022-12-10T02:24:23;100380.06;;;-4.98;100.00
12666;BME280;58531;59.050;17.416;2022-12-10T02:26:57;100381.16;;;-4.99;100.00
12666;BME280;58531;59.050;17.416;2022-12-10T02:29:28;100383.50;;;-4.94;100.00
12666;BME280;58531;59.050;17.416;2022-12-10T02:32:00;100380.81;;;-4.98;100.00
12666;BME280;58531;59.050;17.416;2022-12-10T02:34:36;100380.75;;;-5.01;100.00
12666;BME280;58531;59.050;17.416;2022-12-10T02:37:07;100387.88;;;-4.98;100.00
12666;BME280;58531;59.050;17.416;2022-12-10T02:39:39;100391.56;;;-4.99;100.00
12666;BME280;58531;59.050;17.416;2022-12-10T02:42:10;100393.81;;;-4.98;100.00
12666;BME280;58531;59.050;17.416;2022-12-10T02:44:42;100392.41;;;-4.95;100.00
12666;BME280;58531;59.050;17.416;2022-12-10T02:47:10;100392.41;;;-4.95;100.00
12666;BME280;58531;59.050;17.416;2022-12-10T02:49:39;100392.50;;;-4.92;100.00
12666;BME280;58531;59.050;17.416;2022-12-10T02:52:08;100395.94;;;-4.88;100.00
12666;BME280;58531;59.050;17.416;2022-12-10T02:54:39;100393.44;;;-4.84;100.00
12666;BME280;58531;59.050;17.416;2022-12-10T02:57:18;100391.81;;;-4.89;100.00
12666;BME280;58531;59.050;17.416;2022-12-10T03:00:00;100391.91;;;-4.85;100.00
12666;BME280;58531;59.050;17.416;2022-12-10T03:02:34;100393.44;;;-4.84;100.00
12666;BME280;58531;59.050;17.416;2022-12-10T03:05:07;100391.97;;;-4.82;100.00
12666;BME280;58531;59.050;17.416;2022-12-10T03:07:44;100404.16;;;-4.86;100.00
12666;BME280;58531;59.050;17.416;2022-12-10T03:10:18;100399.03;;;-4.82;100.00
12666;BME280;58531;59.050;17.416;2022-12-10T03:12:48;100399.19;;;-4.75;100.00
12666;BME280;58531;59.050;17.416;2022-12-10T03:15:19;100394.50;;;-4.70;100.00
12666;BME280;58531;59.050;17.416;2022-12-10T03:17:50;100389.63;;;-4.71;100.00
12666;BME280;58531;59.050;17.416;2022-12-10T03:20:17;100399.59;;;-4.73;100.00
12666;BME280;58531;59.050;17.416;2022-12-10T03:22:46;100395.50;;;-4.74;100.00
12666;BME280;58531;59.050;17.416;2022-12-10T03:25:17;100403.72;;;-4.72;100.00
12666;BME280;58531;59.050;17.416;2022-12-10T03:27:45;100395.59;;;-4.71;100.00
12666;BME280;58531;59.050;17.416;2022-12-10T03:30:15;100403.88;;;-4.66;100.00
12666;BME280;58531;59.050;17.416;2022-12-10T03:32:44;100403.31;;;-4.74;100.00
12666;BME280;58531;59.050;17.416;2022-12-10T03:35:12;100399.34;;;-4.68;100.00
12666;BME280;58531;59.050;17.416;2022-12-10T03:37:39;100399.44;;;-4.65;100.00
12666;BME280;58531;59.050;17.416;2022-12-10T03:40:07;100396.97;;;-4.58;100.00
12666;BME280;58531;59.050;17.416;2022-12-10T03:42:35;100399.25;;;-4.57;100.00
12666;BME280;58531;59.050;17.416;2022-12-10T03:45:03;100400.34;;;-4.58;100.00
12666;BME280;58531;59.050;17.416;2022-12-10T03:47:30;100399.31;;;-4.53;100.00
12666;BME280;58531;59.050;17.416;2022-12-10T03:49:58;100401.94;;;-4.53;100.00
12666;BME280;58531;59.050;17.416;2022-12-10T03:52:25;100402.28;;;-4.55;100.00
12666;BME280;58531;59.050;17.416;2022-12-10T03:54:51;100405.31;;;-4.53;100.00
12666;BME280;58531;59.050;17.416;2022-12-10T03:57:18;100407.41;;;-4.58;100.00
12666;BME280;58531;59.050;17.416;2022-12-10T03:59:45;100405.97;;;-4.56;100.00
12666;BME280;58531;59.050;17.416;2022-12-10T04:02:12;100403.38;;;-4.56;100.00
12666;BME280;58531;59.050;17.416;2022-12-10T04:04:39;100399.94;;;-4.60;100.00
12666;BME280;58531;59.050;17.416;2022-12-10T04:07:07;100399.25;;;-4.57;100.00
12666;BME280;58531;59.050;17.416;2022-12-10T04:09:34;100403.38;;;-4.56;100.00
12666;BME280;58531;59.050;17.416;2022-12-10T04:12:01;100407.41;;;-4.58;100.00
12666;BME280;58531;59.050;17.416;2022-12-10T04:14:28;100407.41;;;-4.58;100.00
12666;BME280;58531;59.050;17.416;2022-12-10T04:17:12;100401.44;;;-4.59;100.00
12666;BME280;58531;59.050;17.416;2022-12-10T04:19:39;100396.97;;;-4.58;100.00
12666;BME280;58531;59.050;17.416;2022-12-10T04:22:09;100404.53;;;-4.53;100.00
12666;BME280;58531;59.050;17.416;2022-12-10T04:24:53;100408.66;;;-4.52;100.00
12666;BME280;58531;59.050;17.416;2022-12-10T04:27:38;100403.53;;;-4.49;100.00
12666;BME280;58531;59.050;17.416;2022-12-10T04:30:08;100399.47;;;-4.46;100.00
12666;BME280;58531;59.050;17.416;2022-12-10T04:32:36;100400.50;;;-4.51;100.00
12666;BME280;58531;59.050;17.416;2022-12-10T04:35:04;100409.06;;;-4.50;100.00
12666;BME280;58531;59.050;17.416;2022-12-10T04:37:32;100400.50;;;-4.51;100.00
12666;BME280;58531;59.050;17.416;2022-12-10T04:39:59;100403.19;;;-4.47;100.00
12666;BME280;58531;59.050;17.416;2022-12-10T04:42:26;100403.84;;;-4.50;100.00
12666;BME280;58531;59.050;17.416;2022-12-10T04:44:52;100399.84;;;-4.48;100.00
12666;BME280;58531;59.050;17.416;2022-12-10T04:47:19;100403.94;;;-4.47;100.00
12666;BME280;58531;59.050;17.416;2022-12-10T04:49:46;100401.75;;;-4.45;100.00
12666;BME280;58531;59.050;17.416;2022-12-10T04:52:14;100405.09;;;-4.44;100.00
12666;BME280;58531;59.050;17.416;2022-12-10T04:54:43;100406.72;;;-4.40;100.00
12666;BME280;58531;59.050;17.416;2022-12-10T04:57:10;100411.50;;;-4.42;100.00
12666;BME280;58531;59.050;17.416;2022-12-10T04:59:37;100407.03;;;-4.41;100.00
12666;BME280;58531;59.050;17.416;2022-12-10T05:02:05;100411.56;;;-4.38;100.00
12666;BME280;58531;59.050;17.416;2022-12-10T05:04:32;100410.16;;;-4.36;100.00
12666;BME280;58531;59.050;17.416;2022-12-10T05:06:59;100417.63;;;-4.34;100.00
12666;BME280;58531;59.050;17.416;2022-12-10T05:09:26;100410.16;;;-4.36;100.00
12666;BME280;58531;59.050;17.416;2022-12-10T05:11:54;100409.31;;;-4.40;100.00
12666;BME280;58531;59.050;17.416;2022-12-10T05:14:21;100410.47;;;-4.37;100.00
12666;BME280;58531;59.050;17.416;2022-12-10T05:16:49;100398.91;;;-4.40;100.00
12666;BME280;58531;59.050;17.416;2022-12-10T05:19:16;100400.25;;;-4.46;100.00
12666;BME280;58531;59.050;17.416;2022-12-10T05:21:44;100405.47;;;-4.46;100.00
12666;BME280;58531;59.050;17.416;2022-12-10T05:24:29;100403.59;;;-4.45;100.00
12666;BME280;58531;59.050;17.416;2022-12-10T05:26:58;100406.13;;;-4.49;100.00
12666;BME280;58531;59.050;17.416;2022-12-10T05:29:24;100406.81;;;-4.52;100.00
12666;BME280;58531;59.050;17.416;2022-12-10T05:31:51;100408.31;;;-4.51;100.00
12666;BME280;58531;59.050;17.416;2022-12-10T05:34:18;100410.50;;;-4.53;100.00
12666;BME280;58531;59.050;17.416;2022-12-10T05:36:45;100413.44;;;-4.54;100.00
12666;BME280;58531;59.050;17.416;2022-12-10T05:39:11;100419.50;;;-4.50;100.00
12666;BME280;58531;59.050;17.416;2022-12-10T05:41:39;100414.97;;;-4.53;100.00
12666;BME280;58531;59.050;17.416;2022-12-10T05:44:09;100416.06;;;-4.54;100.00
12666;BME280;58531;59.050;17.416;2022-12-10T05:46:36;100409.41;;;-4.52;100.00
12666;BME280;58531;59.050;17.416;2022-12-10T05:49:05;100421.78;;;-4.49;100.00
12666;BME280;58531;59.050;17.416;2022-12-10T05:51:33;100412.88;;;-4.48;100.00
12666;BME280;58531;59.050;17.416;2022-12-10T05:54:01;100410.69;;;-4.46;100.00
12666;BME280;58531;59.050;17.416;2022-12-10T05:56:29;100413.59;;;-4.47;100.00
12666;BME280;58531;59.050;17.416;2022-12-10T05:58:58;100417.66;;;-4.50;100.00
12666;BME280;58531;59.050;17.416;2022-12-10T06:01:28;100415.72;;;-4.53;100.00
12666;BME280;58531;59.050;17.416;2022-12-10T06:03:57;100420.69;;;-4.48;100.00
12666;BME280;58531;59.050;17.416;2022-12-10T06:06:25;100414.63;;;-4.52;100.00
12666;BME280;58531;59.050;17.416;2022-12-10T06:08:52;100410.69;;;-4.46;100.00
12666;BME280;58531;59.050;17.416;2022-12-10T06:11:19;100416.97;;;-4.47;100.00
12666;BME280;58531;59.050;17.416;2022-12-10T06:13:47;100406.56;;;-4.47;100.00
12666;BME280;58531;59.050;17.416;2022-12-10T06:16:14;100419.59;;;-4.47;100.00
12666;BME280;58531;59.050;17.416;2022-12-10T06:18:43;100418.06;;;-4.48;100.00
12666;BME280;58531;59.050;17.416;2022-12-10T06:21:11;100415.06;;;-4.50;100.00
12666;BME280;58531;59.050;17.416;2022-12-10T06:23:39;100414.28;;;-4.50;100.00
12666;BME280;58531;59.050;17.416;2022-12-10T06:26:08;100420.16;;;-4.53;100.00
12666;BME280;58531;59.050;17.416;2022-12-10T06:28:36;100415.72;;;-4.53;100.00
12666;BME280;58531;59.050;17.416;2022-12-10T06:31:03;100413.38;;;-4.58;100.00
12666;BME280;58531;59.050;17.416;2022-12-10T06:33:30;100417.97;;;-4.51;100.00
12666;BME280;58531;59.050;17.416;2022-12-10T06:35:58;100423.28;;;-4.48;100.00
12666;BME280;58531;59.050;17.416;2022-12-10T06:38:25;100421.78;;;-4.49;100.00
12666;BME280;58531;59.050;17.416;2022-12-10T06:40:52;100428.41;;;-4.51;100.00
12666;BME280;58531;59.050;17.416;2022-12-10T06:43:18;100425.72;;;-4.55;100.00
12666;BME280;58531;59.050;17.416;2022-12-10T06:45:45;100430.25;;;-4.52;100.00
12666;BME280;58531;59.050;17.416;2022-12-10T06:48:12;100435.78;;;-4.53;100.00
12666;BME280;58531;59.050;17.416;2022-12-10T06:50:39;100429.84;;;-4.54;100.00
12666;BME280;58531;59.050;17.416;2022-12-10T06:53:07;100432.09;;;-4.52;100.00
12666;BME280;58531;59.050;17.416;2022-12-10T06:55:36;100432.03;;;-4.56;100.00
12666;BME280;58531;59.050;17.416;2022-12-10T06:58:03;100436.41;;;-4.60;100.00
12666;BME280;58531;59.050;17.416;2022-12-10T07:00:30;100439.44;;;-4.58;100.00
12666;BME280;58531;59.050;17.416;2022-12-10T07:02:57;100435.06;;;-4.54;100.00
12666;BME280;58531;59.050;17.416;2022-12-10T07:05:24;100444.81;;;-4.51;100.00
12666;BME280;58531;59.050;17.416;2022-12-10T07:07:51;100443.28;;;-4.52;100.00
12666;BME280;58531;59.050;17.416;2022-12-10T07:10:19;100450.59;;;-4.57;100.00
12666;BME280;58531;59.050;17.416;2022-12-10T07:12:46;100444.22;;;-4.60;100.00
12666;BME280;58531;59.050;17.416;2022-12-10T07:15:13;100444.22;;;-4.60;100.00
12666;BME280;58531;59.050;17.416;2022-12-10T07:17:39;100449.09;;;-4.58;100.00
12666;BME280;58531;59.050;17.416;2022-12-10T07:20:07;100455.47;;;-4.56;100.00
12666;BME280;58531;59.050;17.416;2022-12-10T07:22:34;100458.81;;;-4.55;100.00
12666;BME280;58531;59.050;17.416;2022-12-10T07:25:00;100453.97;;;-4.57;100.00
12666;BME280;58531;59.050;17.416;2022-12-10T07:27:30;100463.38;;;-4.52;100.00
12666;BME280;58531;59.050;17.416;2022-12-10T07:29:57;100458.50;;;-4.54;100.00
12666;BME280;58531;59.050;17.416;2022-12-10T07:32:24;100464.47;;;-4.53;100.00
12666;BME280;58531;59.050;17.416;2022-12-10T07:34:51;100463.47;;;-4.49;100.00
12666;BME280;58531;59.050;17.416;2022-12-10T07:37:17;100465.47;;;-4.58;100.00
12666;BME280;58531;59.050;17.416;2022-12-10T07:39:44;100459.84;;;-4.60;100.00
12666;BME280;58531;59.050;17.416;2022-12-10T07:42:11;100466.66;;;-4.55;100.00
12666;BME280;58531;59.050;17.416;2022-12-10T07:44:39;100463.63;;;-4.57;100.00
12666;BME280;58531;59.050;17.416;2022-12-10T07:47:06;100460.28;;;-4.58;100.00
12666;BME280;58531;59.050;17.416;2022-12-10T07:49:33;100462.47;;;-4.60;100.00
12666;BME280;58531;59.050;17.416;2022-12-10T07:52:00;100472.22;;;-4.57;100.00
12666;BME280;58531;59.050;17.416;2022-12-10T07:54:27;100463.72;;;-4.54;100.00
12666;BME280;58531;59.050;17.416;2022-12-10T07:56:53;100469.25;;;-4.55;100.00
12666;BME280;58531;59.050;17.416;2022-12-10T07:59:20;100464.81;;;-4.55;100.00
12666;BME280;58531;59.050;17.416;2022-12-10T08:01:48;100477.41;;;-4.57;100.00
12666;BME280;58531;59.050;17.416;2022-12-10T08:04:15;100469.19;;;-4.59;100.00
12666;BME280;58531;59.050;17.416;2022-12-10T08:06:42;100468.09;;;-4.58;100.00
12666;BME280;58531;59.050;17.416;2022-12-10T08:09:09;100469.19;;;-4.59;100.00
12666;BME280;58531;59.050;17.416;2022-12-10T08:11:37;100465.91;;;-4.56;100.00
12666;BME280;58531;59.050;17.416;2022-12-10T08:14:04;100460.63;;;-4.59;100.00
12666;BME280;58531;59.050;17.416;2022-12-10T08:16:31;100463.63;;;-4.57;100.00
12666;BME280;58531;59.050;17.416;2022-12-10T08:19:02;100461.84;;;-4.53;100.00
12666;BME280;58531;59.050;17.416;2022-12-10T08:21:30;100462.69;;;-4.49;100.00
12666;BME280;58531;59.050;17.416;2022-12-10T08:23:58;100459.59;;;-4.55;100.00
12666;BME280;58531;59.050;17.416;2022-12-10T08:26:27;100454.22;;;-4.62;100.00
12666;BME280;58531;59.050;17.416;2022-12-10T08:28:56;100460.28;;;-4.58;100.00
12666;BME280;58531;59.050;17.416;2022-12-10T08:31:23;100468.34;;;-4.63;100.00
12666;BME280;58531;59.050;17.416;2022-12-10T08:33:50;100475.22;;;-4.55;100.00
12666;BME280;58531;59.050;17.416;2022-12-10T08:36:22;100478.41;;;-4.46;100.00
12666;BME280;58531;59.050;17.416;2022-12-10T08:38:49;100480.22;;;-4.31;100.00
12666;BME280;58531;59.050;17.416;2022-12-10T08:41:17;100478.31;;;-4.18;100.00
12666;BME280;58531;59.050;17.416;2022-12-10T08:43:46;100483.56;;;-4.15;100.00
12666;BME280;58531;59.050;17.416;2022-12-10T08:46:13;100475.28;;;-4.20;100.00
12666;BME280;58531;59.050;17.416;2022-12-10T08:48:41;100479.03;;;-4.18;100.00
12666;BME280;58531;59.050;17.416;2022-12-10T08:51:09;100474.44;;;-4.24;100.00
12666;BME280;58531;59.050;17.416;2022-12-10T08:53:41;100476.00;;;-4.20;100.00
12666;BME280;58531;59.050;17.416;2022-12-10T08:56:08;100483.84;;;-4.20;100.00
12666;BME280;58531;59.050;17.416;2022-12-10T08:58:37;100480.50;;;-4.20;100.00
12666;BME280;58531;59.050;17.416;2022-12-10T09:01:08;100475.19;;;-4.24;100.00
12666;BME280;58531;59.050;17.416;2022-12-10T09:03:35;100481.91;;;-4.23;100.00
12666;BME280;58531;59.050;17.416;2022-12-10T09:06:04;100486.59;;;-4.13;100.00
12666;BME280;58531;59.050;17.416;2022-12-10T09:08:31;100476.84;;;-4.16;100.00
12666;BME280;58531;59.050;17.416;2022-12-10T09:11:04;100491.13;;;-4.10;100.00
12666;BME280;58531;59.050;17.416;2022-12-10T09:13:31;100491.13;;;-4.10;100.00
12666;BME280;58531;59.050;17.416;2022-12-10T09:15:59;100487.63;;;-4.17;100.00
12666;BME280;58531;59.050;17.416;2022-12-10T09:18:26;100489.63;;;-4.11;100.00
12666;BME280;58531;59.050;17.416;2022-12-10T09:20:55;100483.38;;;-4.06;100.00
12666;BME280;58531;59.050;17.416;2022-12-10T09:23:22;100485.41;;;-4.00;100.00
12666;BME280;58531;59.050;17.416;2022-12-10T09:25:49;100490.19;;;-4.02;100.00
12666;BME280;58531;59.050;17.416;2022-12-10T09:28:17;100490.94;;;-3.86;100.00
12666;BME280;58531;59.050;17.416;2022-12-10T09:30:54;100492.53;;;-3.97;100.00
12666;BME280;58531;59.050;17.416;2022-12-10T09:33:24;100503.72;;;-3.96;100.00
12666;BME280;58531;59.050;17.416;2022-12-10T09:35:51;100501.03;;;-4.00;100.00
12666;BME280;58531;59.050;17.416;2022-12-10T09:38:18;100500.88;;;-4.07;100.00
12666;BME280;58531;59.050;17.416;2022-12-10T09:41:01;100504.59;;;-4.08;100.00
12666;BME280;58531;59.050;17.416;2022-12-10T09:43:44;100502.00;;;-4.08;100.00
12666;BME280;58531;59.050;17.416;2022-12-10T09:46:18;100505.44;;;-4.04;100.00
12666;BME280;58531;59.050;17.416;2022-12-10T09:48:59;100506.94;;;-4.03;100.00
12666;BME280;58531;59.050;17.416;2022-12-10T09:51:29;100510.91;;;-4.09;100.00
12666;BME280;58531;59.050;17.416;2022-12-10T09:54:15;100515.38;;;-4.09;100.00
12666;BME280;58531;59.050;17.416;2022-12-10T09:56:45;100515.69;;;-4.11;100.00
12666;BME280;58531;59.050;17.416;2022-12-10T09:59:18;100510.97;;;-4.05;100.00
12666;BME280;58531;59.050;17.416;2022-12-10T10:01:53;100515.94;;;-4.00;100.00
12666;BME280;58531;59.050;17.416;2022-12-10T10:04:26;100515.41;;;-3.90;100.00
12666;BME280;58531;59.050;17.416;2022-12-10T10:06:53;100509.44;;;-3.91;100.00
12666;BME280;58531;59.050;17.416;2022-12-10T10:09:21;100519.25;;;-3.84;100.00
12666;BME280;58531;59.050;17.416;2022-12-10T10:11:48;100513.44;;;-3.78;100.00
12666;BME280;58531;59.050;17.416;2022-12-10T10:14:22;100520.16;;;-3.77;100.00
12666;BME280;58531;59.050;17.416;2022-12-10T10:16:54;100514.50;;;-3.63;100.00
12666;BME280;58531;59.050;17.416;2022-12-10T10:19:26;100524.00;;;-3.71;100.00
12666;BME280;58531;59.050;17.416;2022-12-10T10:21:55;100524.28;;;-3.76;100.00
12666;BME280;58531;59.050;17.416;2022-12-10T10:24:28;100515.19;;;-3.82;100.00
12666;BME280;58531;59.050;17.416;2022-12-10T10:27:11;100523.19;;;-3.75;100.00
12666;BME280;58531;59.050;17.416;2022-12-10T10:29:42;100527.25;;;-3.77;100.00
12666;BME280;58531;59.050;17.416;2022-12-10T10:32:16;100525.53;;;-3.70;100.00
12666;BME280;58531;59.050;17.416;2022-12-10T10:34:44;100534.59;;;-3.64;100.00
12666;BME280;58531;59.050;17.416;2022-12-10T10:37:23;100525.38;;;-3.77;100.00
12666;BME280;58531;59.050;17.416;2022-12-10T10:39:51;100523.19;;;-3.75;100.00
12666;BME280;58531;59.050;17.416;2022-12-10T10:42:27;100520.72;;;-3.68;100.00
12666;BME280;58531;59.050;17.416;2022-12-10T10:44:57;100518.63;;;-3.78;100.00
12666;BME280;58531;59.050;17.416;2022-12-10T10:47:26;100523.59;;;-3.73;100.00
12666;BME280;58531;59.050;17.416;2022-12-10T10:49:54;100521.97;;;-3.62;100.00
12666;BME280;58531;59.050;17.416;2022-12-10T10:52:22;100529.53;;;-3.57;100.00
12666;BME280;58531;59.050;17.416;2022-12-10T10:54:49;100526.34;;;-3.66;100.00
12666;BME280;58531;59.050;17.416;2022-12-10T10:57:22;100527.88;;;-3.65;100.00
12666;BME280;58531;59.050;17.416;2022-12-10T10:59:51;100532.25;;;-3.69;100.00
12666;BME280;58531;59.050;17.416;2022-12-10T11:02:24;100524.78;;;-3.70;100.00
12666;BME280;58531;59.050;17.416;2022-12-10T11:04:56;100521.34;;;-3.55;100.00
12666;BME280;58531;59.050;17.416;2022-12-10T11:07:33;100520.66;;;-3.53;100.00
12666;BME280;58531;59.050;17.416;2022-12-10T11:10:03;100529.13;;;-3.59;100.00
12666;BME280;58531;59.050;17.416;2022-12-10T11:12:35;100533.22;;;-3.58;100.00
12666;BME280;58531;59.050;17.416;2022-12-10T11:15:27;100531.84;;;-3.71;100.00
12666;BME280;58531;59.050;17.416;2022-12-10T11:17:57;100534.91;;;-3.84;100.00
12666;BME280;58531;59.050;17.416;2022-12-10T11:20:26;100529.72;;;-4.00;100.00
12666;BME280;58531;59.050;17.416;2022-12-10T11:22:54;100531.56;;;-4.00;100.00
12666;BME280;58531;59.050;17.416;2022-12-10T11:25:31;100537.56;;;-4.00;100.00
12666;BME280;58531;59.050;17.416;2022-12-10T11:28:10;100528.47;;;-4.06;100.00
12666;BME280;58531;59.050;17.416;2022-12-10T11:30:45;100528.22;;;-4.01;100.00
12666;BME280;58531;59.050;17.416;2022-12-10T11:33:27;100530.00;;;-4.05;100.00
12666;BME280;58531;59.050;17.416;2022-12-10T11:36:03;100525.63;;;-4.01;100.00
12666;BME280;58531;59.050;17.416;2022-12-10T11:38:41;100526.44;;;-3.97;100.00
12666;BME280;58531;59.050;17.416;2022-12-10T11:41:18;100537.03;;;-3.90;100.00
12666;BME280;58531;59.050;17.416;2022-12-10T11:44:01;100534.97;;;-3.81;100.00
12666;BME280;58531;59.050;17.416;2022-12-10T11:46:47;100536.91;;;-3.78;100.00
12666;BME280;58531;59.050;17.416;2022-12-10T11:49:26;100540.19;;;-3.81;100.00
12666;BME280;58531;59.050;17.416;2022-12-10T11:52:03;100545.16;;;-3.76;100.00
12666;BME280;58531;59.050;17.416;2022-12-10T11:54:42;100537.88;;;-3.86;100.00
12666;BME280;58531;59.050;17.416;2022-12-10T11:57:17;100537.28;;;-3.95;100.00
12666;BME280;58531;59.050;17.416;2022-12-10T11:59:54;100545.13;;;-3.95;100.00
12666;BME280;58531;59.050;17.416;2022-12-10T12:02:38;100540.13;;;-3.84;100.00
12666;BME280;58531;59.050;17.416;2022-12-10T12:05:48;100543.59;;;-3.96;100.00
12666;BME280;58531;59.050;17.416;2022-12-10T12:08:24;100540.47;;;-4.01;100.00
12666;BME280;58531;59.050;17.416;2022-12-10T12:11:09;100547.88;;;-4.03;100.00
12666;BME280;58531;59.050;17.416;2022-12-10T12:13:44;100548.25;;;-4.05;100.00
12666;BME280;58531;59.050;17.416;2022-12-10T12:16:16;100545.03;;;-3.98;100.00
12666;BME280;58531;59.050;17.416;2022-12-10T12:18:49;100547.16;;;-4.04;100.00
12666;BME280;58531;59.050;17.416;2022-12-10T12:21:21;100545.63;;;-4.05;100.00
12666;BME280;58531;59.050;17.416;2022-12-10T12:23:51;100553.88;;;-4.03;100.00
12666;BME280;58531;59.050;17.416;2022-12-10T12:26:25;100553.09;;;-4.03;100.00
12666;BME280;58531;59.050;17.416;2022-12-10T12:28:58;100542.66;;;-4.03;100.00
12666;BME280;58531;59.050;17.416;2022-12-10T12:31:31;100547.81;;;-4.07;100.00
12666;BME280;58531;59.050;17.416;2022-12-10T12:34:03;100555.16;;;-4.12;100.00
12666;BME280;58531;59.050;17.416;2022-12-10T12:36:48;100545.47;;;-4.12;100.00
12666;BME280;58531;59.050;17.416;2022-12-10T12:39:23;100546.38;;;-4.04;100.00
12666;BME280;58531;59.050;17.416;2022-12-10T12:42:00;100540.00;;;-4.07;100.00
12666;BME280;58531;59.050;17.416;2022-12-10T12:44:36;100546.63;;;-3.94;100.00